sensor_id;sensor_type;location;lat;lon;timestamp;temperature;humidity
25092;DHT22;13082;52.374;4.946;2022-12-17T00:01:48;0.00;99.90
25092;DHT22;13082;52.374;4.946;2022-12-17T00:04:32;0.00;99.90
25092;DHT22;13082;52.374;4.946;2022-12-17T00:07:17;0.10;99.90
25092;DHT22;13082;52.374;4.946;2022-12-17T00:10:00;0.00;99.90
25092;DHT22;13082;52.374;4.946;2022-12-17T00:12:48;-0.10;99.90
25092;DHT22;13082;52.374;4.946;2022-12-17T00:15:33;-0.10;99.90
25092;DHT22;13082;52.374;4.946;2022-12-17T00:18:18;0.00;99.90
25092;DHT22;13082;52.374;4.946;2022-12-17T00:21:04;0.10;99.90
25092;DHT22;13082;52.374;4.946;2022-12-17T00:23:49;0.00;99.90
25092;DHT22;13082;52.374;4.946;2022-12-17T00:26:33;-0.10;99.90
25092;DHT22;13082;52.374;4.946;2022-12-17T00:29:18;-0.10;99.90
25092;DHT22;13082;52.374;4.946;2022-12-17T00:32:03;-0.10;99.90
25092;DHT22;13082;52.374;4.946;2022-12-17T00:34:47;-0.20;99.90
25092;DHT22;13082;52.374;4.946;2022-12-17T00:37:31;-0.20;99.90
25092;DHT22;13082;52.374;4.946;2022-12-17T00:40:16;-0.10;99.90
25092;DHT22;13082;52.374;4.946;2022-12-17T00:43:09;-0.20;99.90
25092;DHT22;13082;52.374;4.946;2022-12-17T00:45:54;-0.30;99.90
25092;DHT22;13082;52.374;4.946;2022-12-17T00:48:38;-0.30;99.90
25092;DHT22;13082;52.374;4.946;2022-12-17T00:51:23;-0.30;99.90
25092;DHT22;13082;52.374;4.946;2022-12-17T00:54:07;-0.20;99.90
25092;DHT22;13082;52.374;4.946;2022-12-17T00:56:51;-0.20;99.90
25092;DHT22;13082;52.374;4.946;2022-12-17T00:59:35;-0.20;99.90
25092;DHT22;13082;52.374;4.946;2022-12-17T01:02:19;-0.20;99.90
25092;DHT22;13082;52.374;4.946;2022-12-17T01:05:04;-0.20;99.90
25092;DHT22;13082;52.374;4.946;2022-12-17T01:07:48;-0.20;99.90
25092;DHT22;13082;52.374;4.946;2022-12-17T01:10:33;-0.20;99.90
25092;DHT22;13082;52.374;4.946;2022-12-17T01:13:18;-0.30;99.90
25092;DHT22;13082;52.374;4.946;2022-12-17T01:16:10;-0.30;99.90
25092;DHT22;13082;52.374;4.946;2022-12-17T01:18:55;-0.30;99.90
25092;DHT22;13082;52.374;4.946;2022-12-17T01:21:39;-0.20;99.90
25092;DHT22;13082;52.374;4.946;2022-12-17T01:24:24;-0.20;99.90
25092;DHT22;13082;52.374;4.946;2022-12-17T01:27:09;-0.10;99.90
25092;DHT22;13082;52.374;4.946;2022-12-17T01:30:00;-0.10;99.90
25092;DHT22;13082;52.374;4.946;2022-12-17T01:32:45;-0.20;99.90
25092;DHT22;13082;52.374;4.946;2022-12-17T01:35:29;-0.10;99.90
25092;DHT22;13082;52.374;4.946;2022-12-17T01:38:15;-0.10;99.90
25092;DHT22;13082;52.374;4.946;2022-12-17T01:40:59;-0.10;99.90
25092;DHT22;13082;52.374;4.946;2022-12-17T01:43:44;-0.20;99.90
25092;DHT22;13082;52.374;4.946;2022-12-17T01:46:32;-0.30;99.90
25092;DHT22;13082;52.374;4.946;2022-12-17T01:49:20;-0.30;99.90
25092;DHT22;13082;52.374;4.946;2022-12-17T01:52:05;-0.30;99.90
25092;DHT22;13082;52.374;4.946;2022-12-17T01:54:50;-0.30;99.90
25092;DHT22;13082;52.374;4.946;2022-12-17T01:57:34;-0.30;99.90
25092;DHT22;13082;52.374;4.946;2022-12-17T02:00:19;-0.30;99.90
25092;DHT22;13082;52.374;4.946;2022-12-17T02:03:03;-0.20;99.90
25092;DHT22;13082;52.374;4.946;2022-12-17T02:09:08;-0.20;99.90
25092;DHT22;13082;52.374;4.946;2022-12-17T02:14:50;-0.20;99.90
25092;DHT22;13082;52.374;4.946;2022-12-17T02:17:40;-0.40;99.90
25092;DHT22;13082;52.374;4.946;2022-12-17T02:20:30;-0.40;99.90
25092;DHT22;13082;52.374;4.946;2022-12-17T02:23:35;-0.30;99.90
25092;DHT22;13082;52.374;4.946;2022-12-17T02:29:28;-0.30;99.90
25092;DHT22;13082;52.374;4.946;2022-12-17T02:32:14;-0.30;99.90
25092;DHT22;13082;52.374;4.946;2022-12-17T02:35:06;-0.40;99.90
25092;DHT22;13082;52.374;4.946;2022-12-17T02:37:53;-0.50;99.90
25092;DHT22;13082;52.374;4.946;2022-12-17T02:40:38;-0.40;99.90
25092;DHT22;13082;52.374;4.946;2022-12-17T02:43:24;-0.40;99.90
25092;DHT22;13082;52.374;4.946;2022-12-17T02:46:09;-0.40;99.90
25092;DHT22;13082;52.374;4.946;2022-12-17T02:48:53;-0.40;99.90
25092;DHT22;13082;52.374;4.946;2022-12-17T02:51:38;-0.40;99.90
25092;DHT22;13082;52.374;4.946;2022-12-17T02:54:22;-0.50;99.90
25092;DHT22;13082;52.374;4.946;2022-12-17T02:57:06;-0.60;99.90
25092;DHT22;13082;52.374;4.946;2022-12-17T02:59:50;-0.50;99.90
25092;DHT22;13082;52.374;4.946;2022-12-17T03:02:34;-0.40;99.90
25092;DHT22;13082;52.374;4.946;2022-12-17T03:05:18;-0.40;99.90
25092;DHT22;13082;52.374;4.946;2022-12-17T03:08:02;-0.30;99.90
25092;DHT22;13082;52.374;4.946;2022-12-17T03:10:46;-0.30;99.90
25092;DHT22;13082;52.374;4.946;2022-12-17T03:13:30;-0.20;99.90
25092;DHT22;13082;52.374;4.946;2022-12-17T03:16:16;-0.30;99.90
25092;DHT22;13082;52.374;4.946;2022-12-17T03:19:01;-0.20;99.90
25092;DHT22;13082;52.374;4.946;2022-12-17T03:21:45;-0.20;99.90
25092;DHT22;13082;52.374;4.946;2022-12-17T03:24:29;-0.20;99.90
25092;DHT22;13082;52.374;4.946;2022-12-17T03:27:13;-0.20;99.90
25092;DHT22;13082;52.374;4.946;2022-12-17T03:29:57;-0.10;99.90
25092;DHT22;13082;52.374;4.946;2022-12-17T03:32:42;-0.10;99.90
25092;DHT22;13082;52.374;4.946;2022-12-17T03:35:26;0.00;99.90
25092;DHT22;13082;52.374;4.946;2022-12-17T03:38:11;-0.10;99.90
25092;DHT22;13082;52.374;4.946;2022-12-17T03:40:55;-0.10;99.90
25092;DHT22;13082;52.374;4.946;2022-12-17T03:43:39;-0.10;99.90
25092;DHT22;13082;52.374;4.946;2022-12-17T03:46:23;-0.10;99.90
25092;DHT22;13082;52.374;4.946;2022-12-17T03:49:08;-0.10;99.90
25092;DHT22;13082;52.374;4.946;2022-12-17T03:51:52;-0.10;99.90
25092;DHT22;13082;52.374;4.946;2022-12-17T03:54:36;-0.10;99.90
25092;DHT22;13082;52.374;4.946;2022-12-17T03:57:20;-0.10;99.90
25092;DHT22;13082;52.374;4.946;2022-12-17T04:00:05;-0.10;99.90
25092;DHT22;13082;52.374;4.946;2022-12-17T04:02:49;-0.20;99.90
25092;DHT22;13082;52.374;4.946;2022-12-17T04:05:33;-0.20;99.90
25092;DHT22;13082;52.374;4.946;2022-12-17T04:08:17;-0.30;99.90
25092;DHT22;13082;52.374;4.946;2022-12-17T04:11:01;-0.30;99.90
25092;DHT22;13082;52.374;4.946;2022-12-17T04:13:45;-0.30;99.90
25092;DHT22;13082;52.374;4.946;2022-12-17T04:16:29;-0.30;99.90
25092;DHT22;13082;52.374;4.946;2022-12-17T04:19:13;-0.30;99.90
25092;DHT22;13082;52.374;4.946;2022-12-17T04:21:58;-0.30;99.90
25092;DHT22;13082;52.374;4.946;2022-12-17T04:24:42;-0.20;99.90
25092;DHT22;13082;52.374;4.946;2022-12-17T04:27:26;-0.20;99.90
25092;DHT22;13082;52.374;4.946;2022-12-17T04:30:10;-0.20;99.90
25092;DHT22;13082;52.374;4.946;2022-12-17T04:32:54;-0.20;99.90
25092;DHT22;13082;52.374;4.946;2022-12-17T04:35:38;-0.10;99.90
25092;DHT22;13082;52.374;4.946;2022-12-17T04:38:22;-0.10;99.90
25092;DHT22;13082;52.374;4.946;2022-12-17T04:41:06;-0.10;99.90
25092;DHT22;13082;52.374;4.946;2022-12-17T04:43:50;-0.20;99.90
25092;DHT22;13082;52.374;4.946;2022-12-17T04:46:34;-0.20;99.90
25092;DHT22;13082;52.374;4.946;2022-12-17T04:49:18;-0.20;99.90
25092;DHT22;13082;52.374;4.946;2022-12-17T04:52:03;-0.10;99.90
25092;DHT22;13082;52.374;4.946;2022-12-17T04:54:47;-0.10;99.90
25092;DHT22;13082;52.374;4.946;2022-12-17T04:57:31;-0.10;99.90
25092;DHT22;13082;52.374;4.946;2022-12-17T05:00:16;-0.10;99.90
25092;DHT22;13082;52.374;4.946;2022-12-17T05:03:11;-0.20;99.90
25092;DHT22;13082;52.374;4.946;2022-12-17T05:05:55;-0.20;99.90
25092;DHT22;13082;52.374;4.946;2022-12-17T05:08:39;-0.30;99.90
25092;DHT22;13082;52.374;4.946;2022-12-17T05:11:23;-0.30;99.90
25092;DHT22;13082;52.374;4.946;2022-12-17T05:14:08;-0.30;99.90
25092;DHT22;13082;52.374;4.946;2022-12-17T05:16:52;-0.40;99.90
25092;DHT22;13082;52.374;4.946;2022-12-17T05:19:36;-0.30;99.90
25092;DHT22;13082;52.374;4.946;2022-12-17T05:22:21;-0.30;99.90
25092;DHT22;13082;52.374;4.946;2022-12-17T05:25:05;-0.30;99.90
25092;DHT22;13082;52.374;4.946;2022-12-17T05:27:49;-0.30;99.90
25092;DHT22;13082;52.374;4.946;2022-12-17T05:30:33;-0.30;99.90
25092;DHT22;13082;52.374;4.946;2022-12-17T05:33:17;-0.20;99.90
25092;DHT22;13082;52.374;4.946;2022-12-17T05:36:02;-0.20;99.90
25092;DHT22;13082;52.374;4.946;2022-12-17T05:38:47;-0.20;99.90
25092;DHT22;13082;52.374;4.946;2022-12-17T05:41:31;-0.20;99.90
25092;DHT22;13082;52.374;4.946;2022-12-17T05:44:15;-0.20;99.90
25092;DHT22;13082;52.374;4.946;2022-12-17T05:46:59;-0.30;99.90
25092;DHT22;13082;52.374;4.946;2022-12-17T05:49:43;-0.20;99.90
25092;DHT22;13082;52.374;4.946;2022-12-17T05:52:27;-0.30;99.90
25092;DHT22;13082;52.374;4.946;2022-12-17T05:55:11;-0.40;99.90
25092;DHT22;13082;52.374;4.946;2022-12-17T05:58:08;-0.40;99.90
25092;DHT22;13082;52.374;4.946;2022-12-17T06:00:55;-0.30;99.90
25092;DHT22;13082;52.374;4.946;2022-12-17T06:03:39;-0.40;99.90
25092;DHT22;13082;52.374;4.946;2022-12-17T06:06:23;-0.30;99.90
25092;DHT22;13082;52.374;4.946;2022-12-17T06:09:07;-0.30;99.90
25092;DHT22;13082;52.374;4.946;2022-12-17T06:11:52;-0.30;99.90
25092;DHT22;13082;52.374;4.946;2022-12-17T06:14:35;-0.30;99.90
25092;DHT22;13082;52.374;4.946;2022-12-17T06:17:19;-0.40;99.90
25092;DHT22;13082;52.374;4.946;2022-12-17T06:20:04;-0.40;99.90
25092;DHT22;13082;52.374;4.946;2022-12-17T06:23:01;-0.30;99.90
25092;DHT22;13082;52.374;4.946;2022-12-17T06:25:46;-0.30;99.90
25092;DHT22;13082;52.374;4.946;2022-12-17T06:28:30;-0.30;99.90
25092;DHT22;13082;52.374;4.946;2022-12-17T06:31:14;-0.30;99.90
25092;DHT22;13082;52.374;4.946;2022-12-17T06:33:58;-0.30;99.90
25092;DHT22;13082;52.374;4.946;2022-12-17T06:36:42;-0.30;99.90
25092;DHT22;13082;52.374;4.946;2022-12-17T06:39:26;-0.40;99.90
25092;DHT22;13082;52.374;4.946;2022-12-17T06:42:10;-0.40;99.90
25092;DHT22;13082;52.374;4.946;2022-12-17T06:44:54;-0.30;99.90
25092;DHT22;13082;52.374;4.946;2022-12-17T06:47:38;-0.30;99.90
25092;DHT22;13082;52.374;4.946;2022-12-17T06:50:22;-0.30;99.90
25092;DHT22;13082;52.374;4.946;2022-12-17T06:53:06;-0.30;99.90
25092;DHT22;13082;52.374;4.946;2022-12-17T06:55:51;-0.30;99.90
25092;DHT22;13082;52.374;4.946;2022-12-17T06:58:35;-0.30;99.90
25092;DHT22;13082;52.374;4.946;2022-12-17T07:01:20;-0.30;99.90
25092;DHT22;13082;52.374;4.946;2022-12-17T07:04:04;-0.30;99.90
25092;DHT22;13082;52.374;4.946;2022-12-17T07:06:48;-0.30;99.90
25092;DHT22;13082;52.374;4.946;2022-12-17T07:09:32;-0.30;99.90
25092;DHT22;13082;52.374;4.946;2022-12-17T07:12:17;-0.30;99.90
25092;DHT22;13082;52.374;4.946;2022-12-17T07:15:01;-0.20;99.90
25092;DHT22;13082;52.374;4.946;2022-12-17T07:18:02;-0.20;99.90
25092;DHT22;13082;52.374;4.946;2022-12-17T07:20:48;-0.20;99.90
25092;DHT22;13082;52.374;4.946;2022-12-17T07:23:32;-0.20;99.90
25092;DHT22;13082;52.374;4.946;2022-12-17T07:26:16;-0.10;99.90
25092;DHT22;13082;52.374;4.946;2022-12-17T07:29:01;-0.10;99.90
25092;DHT22;13082;52.374;4.946;2022-12-17T07:31:46;-0.10;99.90
25092;DHT22;13082;52.374;4.946;2022-12-17T07:34:30;-0.10;99.90
25092;DHT22;13082;52.374;4.946;2022-12-17T07:37:14;-0.10;99.90
25092;DHT22;13082;52.374;4.946;2022-12-17T07:39:58;-0.10;99.90
25092;DHT22;13082;52.374;4.946;2022-12-17T07:42:42;-0.20;99.90
25092;DHT22;13082;52.374;4.946;2022-12-17T07:45:26;-0.10;99.90
25092;DHT22;13082;52.374;4.946;2022-12-17T07:48:10;-0.10;99.90
25092;DHT22;13082;52.374;4.946;2022-12-17T07:50:55;-0.10;99.90
25092;DHT22;13082;52.374;4.946;2022-12-17T07:53:39;-0.10;99.90
25092;DHT22;13082;52.374;4.946;2022-12-17T07:56:24;-0.10;99.90
25092;DHT22;13082;52.374;4.946;2022-12-17T07:59:08;-0.10;99.90
25092;DHT22;13082;52.374;4.946;2022-12-17T08:01:52;-0.10;99.90
25092;DHT22;13082;52.374;4.946;2022-12-17T08:04:36;-0.10;99.90
25092;DHT22;13082;52.374;4.946;2022-12-17T08:07:20;-0.10;99.90
25092;DHT22;13082;52.374;4.946;2022-12-17T08:10:04;-0.10;99.90
25092;DHT22;13082;52.374;4.946;2022-12-17T08:12:59;-0.10;99.90
25092;DHT22;13082;52.374;4.946;2022-12-17T08:15:45;-0.10;99.90
25092;DHT22;13082;52.374;4.946;2022-12-17T08:18:30;-0.20;99.90
25092;DHT22;13082;52.374;4.946;2022-12-17T08:21:15;-0.10;99.90
25092;DHT22;13082;52.374;4.946;2022-12-17T08:23:59;-0.10;99.90
25092;DHT22;13082;52.374;4.946;2022-12-17T08:26:43;-0.10;99.90
25092;DHT22;13082;52.374;4.946;2022-12-17T08:29:27;0.00;99.90
25092;DHT22;13082;52.374;4.946;2022-12-17T08:32:12;0.00;99.90
25092;DHT22;13082;52.374;4.946;2022-12-17T08:34:56;0.00;99.90
25092;DHT22;13082;52.374;4.946;2022-12-17T08:37:40;0.10;99.90
25092;DHT22;13082;52.374;4.946;2022-12-17T08:40:24;0.10;99.90
25092;DHT22;13082;52.374;4.946;2022-12-17T08:43:08;0.10;99.90
25092;DHT22;13082;52.374;4.946;2022-12-17T08:45:52;0.10;99.90
25092;DHT22;13082;52.374;4.946;2022-12-17T08:48:37;0.10;99.90
25092;DHT22;13082;52.374;4.946;2022-12-17T08:51:22;0.10;99.90
25092;DHT22;13082;52.374;4.946;2022-12-17T08:54:06;0.10;99.90
25092;DHT22;13082;52.374;4.946;2022-12-17T08:56:51;0.10;99.90
25092;DHT22;13082;52.374;4.946;2022-12-17T08:59:35;0.10;99.90
25092;DHT22;13082;52.374;4.946;2022-12-17T09:02:20;0.20;99.90
25092;DHT22;13082;52.374;4.946;2022-12-17T09:05:05;0.20;99.90
25092;DHT22;13082;52.374;4.946;2022-12-17T09:07:57;0.20;99.90
25092;DHT22;13082;52.374;4.946;2022-12-17T09:10:41;0.30;99.90
25092;DHT22;13082;52.374;4.946;2022-12-17T09:13:25;0.30;99.90
25092;DHT22;13082;52.374;4.946;2022-12-17T09:16:10;0.30;99.90
25092;DHT22;13082;52.374;4.946;2022-12-17T09:18:54;0.40;99.90
25092;DHT22;13082;52.374;4.946;2022-12-17T09:21:38;0.40;99.90
25092;DHT22;13082;52.374;4.946;2022-12-17T09:24:22;0.50;99.90
25092;DHT22;13082;52.374;4.946;2022-12-17T09:27:06;0.60;99.90
25092;DHT22;13082;52.374;4.946;2022-12-17T09:29:50;0.60;99.90
25092;DHT22;13082;52.374;4.946;2022-12-17T09:32:37;0.70;99.90
25092;DHT22;13082;52.374;4.946;2022-12-17T09:35:21;0.70;99.90
25092;DHT22;13082;52.374;4.946;2022-12-17T09:38:05;0.70;99.90
25092;DHT22;13082;52.374;4.946;2022-12-17T09:40:50;0.60;99.90
25092;DHT22;13082;52.374;4.946;2022-12-17T09:46:39;0.80;99.90
25092;DHT22;13082;52.374;4.946;2022-12-17T09:49:27;0.80;99.90
25092;DHT22;13082;52.374;4.946;2022-12-17T09:52:33;0.90;99.90
25092;DHT22;13082;52.374;4.946;2022-12-17T09:55:46;0.90;99.90
25092;DHT22;13082;52.374;4.946;2022-12-17T09:58:35;0.90;99.90
25092;DHT22;13082;52.374;4.946;2022-12-17T10:01:31;0.80;99.90
25092;DHT22;13082;52.374;4.946;2022-12-17T10:04:20;0.70;99.90
25092;DHT22;13082;52.374;4.946;2022-12-17T10:07:22;0.70;99.90
25092;DHT22;13082;52.374;4.946;2022-12-17T10:13:10;0.90;99.90
25092;DHT22;13082;52.374;4.946;2022-12-17T10:15:54;1.10;99.90
25092;DHT22;13082;52.374;4.946;2022-12-17T10:18:38;1.10;99.90
25092;DHT22;13082;52.374;4.946;2022-12-17T10:21:25;1.20;99.90
25092;DHT22;13082;52.374;4.946;2022-12-17T10:24:10;1.30;99.90
25092;DHT22;13082;52.374;4.946;2022-12-17T10:26:54;1.40;99.90
25092;DHT22;13082;52.374;4.946;2022-12-17T10:29:40;1.30;99.90
25092;DHT22;13082;52.374;4.946;2022-12-17T10:32:26;1.20;99.90
25092;DHT22;13082;52.374;4.946;2022-12-17T10:35:25;1.30;99.90
25092;DHT22;13082;52.374;4.946;2022-12-17T10:38:27;1.30;99.90
25092;DHT22;13082;52.374;4.946;2022-12-17T10:41:25;1.10;99.90
25092;DHT22;13082;52.374;4.946;2022-12-17T10:44:28;0.90;99.90
25092;DHT22;13082;52.374;4.946;2022-12-17T10:47:15;1.00;99.90
25092;DHT22;13082;52.374;4.946;2022-12-17T10:50:12;1.00;99.90
25092;DHT22;13082;52.374;4.946;2022-12-17T10:52:57;1.10;99.90
25092;DHT22;13082;52.374;4.946;2022-12-17T10:56:00;1.20;99.90
25092;DHT22;13082;52.374;4.946;2022-12-17T10:58:48;1.20;99.90
25092;DHT22;13082;52.374;4.946;2022-12-17T11:01:33;1.10;99.90
25092;DHT22;13082;52.374;4.946;2022-12-17T11:07:05;1.40;99.90
25092;DHT22;13082;52.374;4.946;2022-12-17T11:09:52;1.50;99.90
25092;DHT22;13082;52.374;4.946;2022-12-17T11:12:43;1.40;99.90
25092;DHT22;13082;52.374;4.946;2022-12-17T11:15:39;1.50;99.90
25092;DHT22;13082;52.374;4.946;2022-12-17T11:18:35;1.50;99.90
25092;DHT22;13082;52.374;4.946;2022-12-17T11:21:27;1.70;99.90
25092;DHT22;13082;52.374;4.946;2022-12-17T11:24:17;1.80;99.90
25092;DHT22;13082;52.374;4.946;2022-12-17T11:27:06;1.80;99.90
25092;DHT22;13082;52.374;4.946;2022-12-17T11:29:51;1.70;99.90
25092;DHT22;13082;52.374;4.946;2022-12-17T11:32:59;1.70;99.90
25092;DHT22;13082;52.374;4.946;2022-12-17T11:35:47;1.70;99.90
25092;DHT22;13082;52.374;4.946;2022-12-17T11:42:13;1.60;99.90
25092;DHT22;13082;52.374;4.946;2022-12-17T11:45:28;1.70;99.90
25092;DHT22;13082;52.374;4.946;2022-12-17T11:48:29;1.60;99.90
25092;DHT22;13082;52.374;4.946;2022-12-17T11:51:17;1.50;99.90
25092;DHT22;13082;52.374;4.946;2022-12-17T11:54:07;1.60;99.90
25092;DHT22;13082;52.374;4.946;2022-12-17T12:00:15;1.80;99.90
25092;DHT22;13082;52.374;4.946;2022-12-17T12:09:46;1.90;99.90
25092;DHT22;13082;52.374;4.946;2022-12-17T12:12:48;2.00;99.90
25092;DHT22;13082;52.374;4.946;2022-12-17T12:16:05;2.00;99.90
25092;DHT22;13082;52.374;4.946;2022-12-17T12:19:14;2.00;99.90
25092;DHT22;13082;52.374;4.946;2022-12-17T12:22:32;1.90;99.90
25092;DHT22;13082;52.374;4.946;2022-12-17T12:28:30;1.90;99.90
25092;DHT22;13082;52.374;4.946;2022-12-17T12:31:30;2.00;99.90
25092;DHT22;13082;52.374;4.946;2022-12-17T12:34:28;2.00;99.90
25092;DHT22;13082;52.374;4.946;2022-12-17T12:37:15;2.10;99.90
25092;DHT22;13082;52.374;4.946;2022-12-17T12:45:56;2.20;99.90
25092;DHT22;13082;52.374;4.946;2022-12-17T12:48:51;2.10;99.90
25092;DHT22;13082;52.374;4.946;2022-12-17T12:51:38;2.30;99.90
25092;DHT22;13082;52.374;4.946;2022-12-17T12:57:28;2.30;99.90
25092;DHT22;13082;52.374;4.946;2022-12-17T13:00:37;2.30;99.90
25092;DHT22;13082;52.374;4.946;2022-12-17T13:03:36;2.20;99.90
25092;DHT22;13082;52.374;4.946;2022-12-17T13:06:44;2.10;99.90
25092;DHT22;13082;52.374;4.946;2022-12-17T13:14:43;1.90;99.90
25092;DHT22;13082;52.374;4.946;2022-12-17T13:20:31;1.80;99.90
25092;DHT22;13082;52.374;4.946;2022-12-17T13:22:31;1.90;99.90
25092;DHT22;13082;52.374;4.946;2022-12-17T13:25:17;1.90;99.90
25092;DHT22;13082;52.374;4.946;2022-12-17T13:27:43;1.90;99.90
25092;DHT22;13082;52.374;4.946;2022-12-17T13:32:58;1.90;99.90
25092;DHT22;13082;52.374;4.946;2022-12-17T13:41:08;1.80;99.90
25092;DHT22;13082;52.374;4.946;2022-12-17T13:46:26;1.70;99.90
25092;DHT22;13082;52.374;4.946;2022-12-17T13:48:57;1.70;99.90
25092;DHT22;13082;52.374;4.946;2022-12-17T13:51:29;1.60;99.90
25092;DHT22;13082;52.374;4.946;2022-12-17T13:53:59;1.60;99.90
25092;DHT22;13082;52.374;4.946;2022-12-17T13:56:28;1.50;99.90
25092;DHT22;13082;52.374;4.946;2022-12-17T13:58:56;1.60;99.90
25092;DHT22;13082;52.374;4.946;2022-12-17T14:01:22;1.60;99.90
25092;DHT22;13082;52.374;4.946;2022-12-17T14:04:00;1.60;99.90
25092;DHT22;13082;52.374;4.946;2022-12-17T14:06:34;1.60;99.90
25092;DHT22;13082;52.374;4.946;2022-12-17T14:09:01;1.50;99.90
25092;DHT22;13082;52.374;4.946;2022-12-17T14:11:27;1.60;99.90
25092;DHT22;13082;52.374;4.946;2022-12-17T14:16:46;1.50;99.90
25092;DHT22;13082;52.374;4.946;2022-12-17T14:19:11;1.50;99.90
25092;DHT22;13082;52.374;4.946;2022-12-17T14:21:37;1.40;99.90
25092;DHT22;13082;52.374;4.946;2022-12-17T14:24:05;1.40;99.90
25092;DHT22;13082;52.374;4.946;2022-12-17T14:26:31;1.30;99.90
25092;DHT22;13082;52.374;4.946;2022-12-17T14:28:57;1.20;99.90
25092;DHT22;13082;52.374;4.946;2022-12-17T14:31:24;1.30;99.90
25092;DHT22;13082;52.374;4.946;2022-12-17T14:34:09;1.30;99.90
25092;DHT22;13082;52.374;4.946;2022-12-17T14:36:42;1.30;99.90
25092;DHT22;13082;52.374;4.946;2022-12-17T14:41:45;1.30;99.90
25092;DHT22;13082;52.374;4.946;2022-12-17T14:44:30;1.40;99.90
25092;DHT22;13082;52.374;4.946;2022-12-17T14:47:22;1.30;99.90
25092;DHT22;13082;52.374;4.946;2022-12-17T14:52:36;1.20;99.90
25092;DHT22;13082;52.374;4.946;2022-12-17T14:57:50;1.00;99.90
25092;DHT22;13082;52.374;4.946;2022-12-17T15:00:17;1.00;99.90
25092;DHT22;13082;52.374;4.946;2022-12-17T15:02:44;1.00;99.90
25092;DHT22;13082;52.374;4.946;2022-12-17T15:05:15;1.00;99.90
25092;DHT22;13082;52.374;4.946;2022-12-17T15:07:41;1.00;99.90
25092;DHT22;13082;52.374;4.946;2022-12-17T15:10:12;1.00;99.90
25092;DHT22;13082;52.374;4.946;2022-12-17T15:12:40;0.90;99.90
25092;DHT22;13082;52.374;4.946;2022-12-17T15:15:07;0.90;99.90
25092;DHT22;13082;52.374;4.946;2022-12-17T15:17:32;0.90;99.90
25092;DHT22;13082;52.374;4.946;2022-12-17T15:19:58;0.80;99.90
25092;DHT22;13082;52.374;4.946;2022-12-17T15:22:23;0.80;99.90
25092;DHT22;13082;52.374;4.946;2022-12-17T15:24:49;0.80;99.90
25092;DHT22;13082;52.374;4.946;2022-12-17T15:27:16;0.80;99.90
25092;DHT22;13082;52.374;4.946;2022-12-17T15:29:42;0.70;99.90
25092;DHT22;13082;52.374;4.946;2022-12-17T15:32:17;0.70;99.90
25092;DHT22;13082;52.374;4.946;2022-12-17T15:34:44;0.60;99.90
25092;DHT22;13082;52.374;4.946;2022-12-17T15:37:09;0.50;99.90
25092;DHT22;13082;52.374;4.946;2022-12-17T15:39:35;0.50;99.90
25092;DHT22;13082;52.374;4.946;2022-12-17T15:42:00;0.50;99.90
25092;DHT22;13082;52.374;4.946;2022-12-17T15:44:44;0.50;99.90
25092;DHT22;13082;52.374;4.946;2022-12-17T15:47:10;0.40;99.90
25092;DHT22;13082;52.374;4.946;2022-12-17T15:49:36;0.30;99.90
25092;DHT22;13082;52.374;4.946;2022-12-17T15:52:01;0.30;99.90
25092;DHT22;13082;52.374;4.946;2022-12-17T15:54:27;0.10;99.90
25092;DHT22;13082;52.374;4.946;2022-12-17T15:56:53;0.10;99.90
25092;DHT22;13082;52.374;4.946;2022-12-17T15:59:19;0.10;99.90
25092;DHT22;13082;52.374;4.946;2022-12-17T16:01:45;0.00;99.90
25092;DHT22;13082;52.374;4.946;2022-12-17T16:04:11;0.00;99.90
25092;DHT22;13082;52.374;4.946;2022-12-17T16:06:36;0.00;99.90
25092;DHT22;13082;52.374;4.946;2022-12-17T16:09:02;0.00;99.90
25092;DHT22;13082;52.374;4.946;2022-12-17T16:11:27;0.00;99.90
25092;DHT22;13082;52.374;4.946;2022-12-17T16:13:54;0.00;99.90
25092;DHT22;13082;52.374;4.946;2022-12-17T16:16:20;0.00;99.90
25092;DHT22;13082;52.374;4.946;2022-12-17T16:18:45;0.00;99.90
25092;DHT22;13082;52.374;4.946;2022-12-17T16:21:11;-0.10;99.90
25092;DHT22;13082;52.374;4.946;2022-12-17T16:23:37;-0.30;99.90
25092;DHT22;13082;52.374;4.946;2022-12-17T16:26:05;-0.30;99.90
25092;DHT22;13082;52.374;4.946;2022-12-17T16:28:31;-0.30;99.90
25092;DHT22;13082;52.374;4.946;2022-12-17T16:31:05;-0.30;99.90
25092;DHT22;13082;52.374;4.946;2022-12-17T16:33:36;-0.30;99.90
25092;DHT22;13082;52.374;4.946;2022-12-17T16:36:02;-0.30;99.90
25092;DHT22;13082;52.374;4.946;2022-12-17T16:38:28;-0.30;99.90
25092;DHT22;13082;52.374;4.946;2022-12-17T16:40:59;-0.40;99.90
25092;DHT22;13082;52.374;4.946;2022-12-17T16:43:27;-0.40;99.90
25092;DHT22;13082;52.374;4.946;2022-12-17T16:45:53;-0.40;99.90
25092;DHT22;13082;52.374;4.946;2022-12-17T16:48:22;-0.40;99.90
25092;DHT22;13082;52.374;4.946;2022-12-17T16:50:49;-0.50;99.90
25092;DHT22;13082;52.374;4.946;2022-12-17T16:53:15;-0.40;99.90
25092;DHT22;13082;52.374;4.946;2022-12-17T16:55:43;-0.40;99.90
25092;DHT22;13082;52.374;4.946;2022-12-17T16:58:13;-0.30;99.90
25092;DHT22;13082;52.374;4.946;2022-12-17T17:00:39;-0.40;99.90
25092;DHT22;13082;52.374;4.946;2022-12-17T17:03:06;-0.40;99.90
25092;DHT22;13082;52.374;4.946;2022-12-17T17:05:36;-0.40;99.90
25092;DHT22;13082;52.374;4.946;2022-12-17T17:08:02;-0.30;99.90
25092;DHT22;13082;52.374;4.946;2022-12-17T17:10:27;-0.30;99.90
25092;DHT22;13082;52.374;4.946;2022-12-17T17:12:54;-0.30;99.90
25092;DHT22;13082;52.374;4.946;2022-12-17T17:15:20;-0.40;99.90
25092;DHT22;13082;52.374;4.946;2022-12-17T17:17:47;-0.40;99.90
25092;DHT22;13082;52.374;4.946;2022-12-17T17:20:13;-0.40;99.90
25092;DHT22;13082;52.374;4.946;2022-12-17T17:22:39;-0.40;99.90
25092;DHT22;13082;52.374;4.946;2022-12-17T17:25:05;-0.40;99.90
25092;DHT22;13082;52.374;4.946;2022-12-17T17:27:31;-0.40;99.90
25092;DHT22;13082;52.374;4.946;2022-12-17T17:29:56;-0.40;99.90
25092;DHT22;13082;52.374;4.946;2022-12-17T17:32:23;-0.30;99.90
25092;DHT22;13082;52.374;4.946;2022-12-17T17:34:49;-0.40;99.90
25092;DHT22;13082;52.374;4.946;2022-12-17T17:37:15;-0.50;99.90
25092;DHT22;13082;52.374;4.946;2022-12-17T17:39:40;-0.60;99.90
25092;DHT22;13082;52.374;4.946;2022-12-17T17:42:06;-0.60;99.90
25092;DHT22;13082;52.374;4.946;2022-12-17T17:44:32;-0.60;99.90
25092;DHT22;13082;52.374;4.946;2022-12-17T17:46:58;-0.50;99.90
25092;DHT22;13082;52.374;4.946;2022-12-17T17:49:23;-0.60;99.90
25092;DHT22;13082;52.374;4.946;2022-12-17T17:51:49;-0.50;99.90
25092;DHT22;13082;52.374;4.946;2022-12-17T17:54:15;-0.50;99.90
25092;DHT22;13082;52.374;4.946;2022-12-17T17:56:41;-0.50;99.90
25092;DHT22;13082;52.374;4.946;2022-12-17T17:59:14;-0.40;99.90
25092;DHT22;13082;52.374;4.946;2022-12-17T18:01:45;-0.50;99.90
25092;DHT22;13082;52.374;4.946;2022-12-17T18:04:14;-0.50;99.90
25092;DHT22;13082;52.374;4.946;2022-12-17T18:06:41;-0.50;99.90
25092;DHT22;13082;52.374;4.946;2022-12-17T18:09:08;-0.60;99.90
25092;DHT22;13082;52.374;4.946;2022-12-17T18:11:35;-0.60;99.90
25092;DHT22;13082;52.374;4.946;2022-12-17T18:14:02;-0.70;99.90
25092;DHT22;13082;52.374;4.946;2022-12-17T18:16:35;-0.70;99.90
25092;DHT22;13082;52.374;4.946;2022-12-17T18:19:13;-0.70;99.90
25092;DHT22;13082;52.374;4.946;2022-12-17T18:21:39;-0.70;99.90